createdAt,value
2018-09-28T00:01:44.037Z,4.57
2018-09-28T00:06:47.905Z,4.13
2018-09-28T00:11:51.772Z,4.07
2018-09-28T00:16:55.624Z,4.30
2018-09-28T00:21:59.495Z,4.47
2018-09-28T00:27:03.355Z,4.50
2018-09-28T00:32:07.304Z,5.40
2018-09-28T00:37:11.208Z,4.97
2018-09-28T00:42:15.088Z,5.40
2018-09-28T00:47:18.960Z,6.03
2018-09-28T00:52:22.572Z,6.10
2018-09-28T00:57:26.406Z,5.90
2018-09-28T01:02:30.287Z,5.73
2018-09-28T01:07:34.160Z,5.57
2018-09-28T01:12:38.036Z,5.57
2018-09-28T01:17:41.903Z,5.83
2018-09-28T01:22:45.603Z,5.47
2018-09-28T01:27:49.405Z,5.60
2018-09-28T01:32:53.291Z,5.70
2018-09-28T01:37:57.185Z,5.50
2018-09-28T01:43:01.076Z,4.67
2018-09-28T01:48:04.702Z,5.57
2018-09-28T01:53:08.223Z,5.17
2018-09-28T01:58:12.591Z,5.07
2018-09-28T02:03:16.484Z,5.67
2018-09-28T02:08:20.344Z,5.40
2018-09-28T02:13:24.225Z,5.43
2018-09-28T02:18:28.120Z,5.30
2018-09-28T02:23:32.009Z,5.40
2018-09-28T02:28:36.393Z,6.03
2018-09-28T02:33:40.251Z,5.80
2018-09-28T02:38:44.176Z,5.53
2018-09-28T02:43:48.055Z,5.90
2018-09-28T02:48:51.663Z,5.90
2018-09-28T02:53:55.477Z,29.77
2018-09-28T02:58:59.381Z,49.83
2018-09-28T03:04:04.180Z,57.83
2018-09-28T03:09:08.981Z,52.10
2018-09-28T03:14:12.609Z,42.50
2018-09-28T03:19:16.428Z,16.83
2018-09-28T03:24:27.044Z,9.03
2018-09-28T03:29:30.921Z,6.30
2018-09-28T03:34:34.772Z,6.83
2018-09-28T03:39:38.449Z,5.63
2018-09-28T03:44:42.283Z,5.23
2018-09-28T03:49:46.168Z,5.63
2018-09-28T03:54:50.032Z,5.20
2018-09-28T03:59:53.905Z,6.20
2018-09-28T04:04:57.784Z,6.27
2018-09-28T04:10:01.421Z,6.60
2018-09-28T04:15:05.295Z,6.27
2018-09-28T04:20:09.192Z,6.43
2018-09-28T04:25:13.093Z,5.77
2018-09-28T04:30:16.695Z,6.77
2018-09-28T04:35:20.485Z,7.47
2018-09-28T04:40:24.376Z,7.40
2018-09-28T04:45:28.268Z,6.30
2018-09-28T04:50:32.132Z,7.43
2018-09-28T04:55:36.404Z,7.17
2018-09-28T05:00:41.096Z,10.27
2018-09-28T05:05:44.974Z,12.93
2018-09-28T05:10:48.861Z,12.10
2018-09-28T05:15:52.735Z,11.13
2018-09-28T05:20:56.633Z,12.97
2018-09-28T05:26:00.495Z,9.93
2018-09-28T05:31:06.839Z,10.00
2018-09-28T05:36:10.680Z,11.40
2018-09-28T05:41:14.552Z,9.87
2018-09-28T05:46:18.532Z,10.37
2018-09-28T05:51:22.378Z,10.67
2018-09-28T05:56:26.216Z,9.07
2018-09-28T06:01:35.374Z,7.93
2018-09-28T06:06:39.140Z,9.10
2018-09-28T06:11:43.021Z,9.17
2018-09-28T06:16:47.069Z,9.93
2018-09-28T06:21:52.892Z,9.73
2018-09-28T06:26:56.792Z,13.10
2018-09-28T06:32:00.684Z,15.87
2018-09-28T06:37:04.592Z,8.20
2018-09-28T06:42:08.490Z,6.77
2018-09-28T06:47:12.380Z,5.90
2018-09-28T06:52:16.296Z,6.07
2018-09-28T06:57:20.876Z,5.37
2018-09-28T07:02:24.759Z,5.50
2018-09-28T07:07:28.609Z,6.10
2018-09-28T07:12:32.500Z,5.43
2018-09-28T07:17:36.359Z,5.47
2018-09-28T07:22:40.277Z,6.43
2018-09-28T07:27:44.140Z,6.40
2018-09-28T07:32:47.996Z,6.80
2018-09-28T07:37:51.877Z,6.40
2018-09-28T07:42:55.769Z,7.67
2018-09-28T07:47:59.685Z,6.23
2018-09-28T07:53:03.510Z,6.33
2018-09-28T07:58:07.402Z,6.80
2018-09-28T08:03:11.307Z,6.90
2018-09-28T08:08:15.178Z,6.83
2018-09-28T08:13:19.280Z,7.13
2018-09-28T08:18:23.241Z,6.90
2018-09-28T08:23:27.241Z,7.60
2018-09-28T08:28:31.950Z,7.60
2018-09-28T08:33:35.869Z,7.90
2018-09-28T08:38:39.788Z,7.83
2018-09-28T08:43:43.775Z,8.30
2018-09-28T08:48:49.490Z,9.63
2018-09-28T08:53:53.362Z,9.07
2018-09-28T08:58:57.262Z,9.03
2018-09-28T09:04:01.243Z,9.30
2018-09-28T09:09:08.406Z,9.73
2018-09-28T09:14:12.275Z,8.50
2018-09-28T09:19:16.491Z,9.47
2018-09-28T09:24:20.410Z,9.07
2018-09-28T09:29:24.753Z,9.20
2018-09-28T09:34:28.657Z,10.53
2018-09-28T09:39:32.637Z,8.70
2018-09-28T09:44:36.548Z,8.90
2018-09-28T09:49:40.481Z,8.33
2018-09-28T09:54:44.353Z,8.40
2018-09-28T09:59:48.680Z,7.77
2018-09-28T10:04:52.583Z,7.53
2018-09-28T10:09:56.960Z,7.00
2018-09-28T10:15:00.852Z,7.00
2018-09-28T10:20:04.826Z,7.60
2018-09-28T10:25:08.801Z,7.17
2018-09-28T10:30:12.650Z,6.95
2018-09-28T10:35:16.537Z,7.12
2018-09-28T10:40:20.537Z,7.37
2018-09-28T10:45:24.412Z,6.83
2018-09-28T10:50:28.269Z,6.47
2018-09-28T10:55:35.348Z,6.97
2018-09-28T11:00:39.237Z,6.30
2018-09-28T11:05:43.125Z,6.85
2018-09-28T11:10:47.071Z,7.33
2018-09-28T11:15:51.243Z,7.00
2018-09-28T11:20:55.092Z,7.08
2018-09-28T11:25:58.987Z,7.20
2018-09-28T11:31:02.952Z,5.87
2018-09-28T11:36:07.084Z,7.15
2018-09-28T11:41:10.966Z,6.33
2018-09-28T11:46:14.834Z,6.55
2018-09-28T11:51:18.817Z,8.40
2018-09-28T11:56:22.709Z,6.40
2018-09-28T12:01:26.596Z,6.17
2018-09-28T12:06:30.564Z,7.00
2018-09-28T12:11:34.377Z,6.50
2018-09-28T12:16:38.260Z,5.22
2018-09-28T12:21:42.239Z,5.30
2018-09-28T12:26:46.032Z,6.10
2018-09-28T12:31:49.953Z,5.42
2018-09-28T12:36:54.526Z,4.55
2018-09-28T12:41:58.433Z,5.33
2018-09-28T12:47:02.319Z,4.72
2018-09-28T12:52:06.345Z,4.80
2018-09-28T12:57:10.236Z,3.95
2018-09-28T13:02:14.166Z,4.15
2018-09-28T13:07:18.040Z,4.62
2018-09-28T13:12:21.964Z,4.15
2018-09-28T13:17:25.816Z,4.72
2018-09-28T13:22:29.717Z,3.42
2018-09-28T13:27:33.644Z,3.20
2018-09-28T13:32:37.805Z,4.00
2018-09-28T13:37:41.709Z,3.22
2018-09-28T13:42:45.400Z,3.70
2018-09-28T13:47:49.134Z,3.17
2018-09-28T13:52:53.352Z,3.50
2018-09-28T13:57:57.185Z,3.40
2018-09-28T14:03:02.101Z,2.83
2018-09-28T14:08:07.191Z,2.83
2018-09-28T14:13:11.068Z,2.83
2018-09-28T14:18:16.421Z,2.20
2018-09-28T14:23:20.333Z,3.15
2018-09-28T14:28:24.295Z,3.25
2018-09-28T14:33:28.158Z,3.22
2018-09-28T14:38:32.101Z,3.37
2018-09-28T14:43:35.917Z,2.30
2018-09-28T14:48:39.907Z,2.83
2018-09-28T14:53:43.781Z,2.60
2018-09-28T14:58:47.742Z,2.30
2018-09-28T15:03:51.557Z,2.65
2018-09-28T15:08:55.481Z,3.05
2018-09-28T15:13:59.383Z,2.92
2018-09-28T15:19:03.331Z,2.67
2018-09-28T15:24:07.515Z,2.40
2018-09-28T15:29:11.380Z,2.10
2018-09-28T15:34:15.264Z,3.40
2018-09-28T15:39:19.364Z,3.10
2018-09-28T15:44:23.247Z,3.10
2018-09-28T15:49:27.121Z,3.10
2018-09-28T15:54:31.016Z,2.80
2018-09-28T15:59:37.663Z,3.50
2018-09-28T16:04:41.682Z,3.23
2018-09-28T16:09:45.585Z,3.27
2018-09-28T16:14:49.488Z,2.37
2018-09-28T16:19:53.099Z,2.67
2018-09-28T16:24:56.629Z,3.50
2018-09-28T16:30:00.207Z,3.90
2018-09-28T16:35:03.983Z,4.77
2018-09-28T16:40:07.882Z,3.50
2018-09-28T16:45:11.749Z,3.53
2018-09-28T16:50:16.835Z,3.70
2018-09-28T16:55:20.624Z,3.40
2018-09-28T17:00:24.524Z,5.10
2018-09-28T17:05:28.440Z,4.03
2018-09-28T17:10:32.321Z,5.57
2018-09-28T17:15:36.195Z,5.70
2018-09-28T17:20:40.085Z,12.23
2018-09-28T17:25:45.044Z,9.93
2018-09-28T17:30:48.912Z,11.63
2018-09-28T17:35:52.835Z,4.70
2018-09-28T17:40:56.472Z,4.20
2018-09-28T17:46:00.269Z,4.10
2018-09-28T17:51:04.129Z,4.30
2018-09-28T17:56:07.747Z,5.33
2018-09-28T18:01:18.061Z,5.50
2018-09-28T18:06:21.962Z,6.07
2018-09-28T18:11:25.744Z,6.50
2018-09-28T18:16:29.535Z,6.50
2018-09-28T18:21:34.100Z,5.70
2018-09-28T18:26:37.735Z,6.00
2018-09-28T18:31:41.518Z,4.97
2018-09-28T18:36:45.536Z,4.53
2018-09-28T18:41:49.448Z,4.10
2018-09-28T18:46:53.324Z,3.33
2018-09-28T18:51:57.195Z,2.20
2018-09-28T18:57:01.102Z,1.70
2018-09-28T19:02:05.013Z,2.00
2018-09-28T19:07:08.668Z,2.30
2018-09-28T19:12:12.648Z,2.07
2018-09-28T19:17:16.430Z,1.40
2018-09-28T19:22:27.016Z,2.00
2018-09-28T19:27:30.897Z,2.23
2018-09-28T19:32:34.798Z,6.00
2018-09-28T19:37:38.727Z,1.90
2018-09-28T19:42:42.536Z,2.00
2018-09-28T19:47:46.390Z,2.03
2018-09-28T19:52:50.249Z,1.80
2018-09-28T19:57:54.163Z,2.13
2018-09-28T20:02:58.068Z,2.00
2018-09-28T20:08:01.668Z,2.10
2018-09-28T20:13:05.283Z,2.30
2018-09-28T20:18:08.883Z,2.70
2018-09-28T20:23:12.696Z,2.87
2018-09-28T20:28:16.327Z,3.00
2018-09-28T20:33:20.456Z,3.80
2018-09-28T20:38:24.124Z,4.50
2018-09-28T20:43:29.647Z,4.97
2018-09-28T20:48:33.505Z,5.53
2018-09-28T20:53:37.375Z,6.40
2018-09-28T20:58:41.269Z,6.27
2018-09-28T21:03:45.132Z,6.90
2018-09-28T21:08:49.034Z,6.70
2018-09-28T21:13:52.924Z,6.87
2018-09-28T21:18:56.841Z,7.40
2018-09-28T21:24:00.757Z,7.73
2018-09-28T21:29:05.003Z,8.57
2018-09-28T21:34:08.843Z,8.63
2018-09-28T21:39:12.740Z,8.40
2018-09-28T21:44:16.625Z,9.30
2018-09-28T21:49:20.528Z,6.93
2018-09-28T21:54:24.518Z,7.03
2018-09-28T21:59:29.173Z,4.70
2018-09-28T22:04:33.126Z,4.73
2018-09-28T22:09:36.940Z,5.77
2018-09-28T22:14:40.870Z,9.50
2018-09-28T22:19:44.753Z,11.63
2018-09-28T22:24:48.619Z,12.10
2018-09-28T22:29:53.892Z,11.57
2018-09-28T22:34:57.756Z,10.30
2018-09-28T22:40:01.653Z,9.00
2018-09-28T22:45:05.568Z,8.83
2018-09-28T22:50:09.449Z,8.47
2018-09-28T22:55:13.380Z,7.37
2018-09-28T23:00:17.241Z,6.13
2018-09-28T23:05:21.127Z,4.00
2018-09-28T23:10:25.060Z,2.40
2018-09-28T23:15:28.936Z,2.30
2018-09-28T23:20:32.852Z,2.00
2018-09-28T23:25:36.756Z,1.87
2018-09-28T23:30:40.657Z,2.90
2018-09-28T23:35:44.533Z,3.80
2018-09-28T23:40:48.420Z,3.17
2018-09-28T23:45:52.271Z,2.97
2018-09-28T23:50:56.152Z,2.40
2018-09-28T23:56:00.037Z,1.90
